Terminal Aerodrome Forecast
Issued by NWS

Home | Current Version | Previous Version | Text Only | Print | Product List | Glossary On
Versions: 1 2 3 4 5 6 7 8 9 10 11 12 13
000
FTUS42 TJSJ 291750
TAFIST
TAF
TIST 291750Z 2918/3018 13010KT P6SM VCSH SCT013 SCT020
      TEMPO 2918/2920 BKN013
     FM292100 15007KT P6SM VCSH OVC100
     FM300300 10004KT P6SM VCSH SCT020 BKN250
     FM301200 10010KT P6SM VCSH SCT020 BKN100=

USA.gov is the U.S. government's official web portal to all federal, state and local government web resources and services.